sensor_id;sensor_type;location;lat;lon;timestamp;P1;durP1;ratioP1;P2;durP2;ratioP2
22282;SDS011;11310;51.528;21.204;2022-08-19T00:02:03;13.45;;;6.35;;
22282;SDS011;11310;51.528;21.204;2022-08-19T00:04:34;11.98;;;6.55;;
22282;SDS011;11310;51.528;21.204;2022-08-19T00:07:04;13.02;;;6.55;;
22282;SDS011;11310;51.528;21.204;2022-08-19T00:09:33;12.27;;;6.43;;
22282;SDS011;11310;51.528;21.204;2022-08-19T00:12:02;10.15;;;5.82;;
22282;SDS011;11310;51.528;21.204;2022-08-19T00:14:31;9.68;;;5.82;;
22282;SDS011;11310;51.528;21.204;2022-08-19T00:17:00;11.25;;;6.47;;
22282;SDS011;11310;51.528;21.204;2022-08-19T00:19:29;12.65;;;6.97;;
22282;SDS011;11310;51.528;21.204;2022-08-19T00:21:59;10.98;;;6.18;;
22282;SDS011;11310;51.528;21.204;2022-08-19T00:24:29;11.20;;;6.50;;
22282;SDS011;11310;51.528;21.204;2022-08-19T00:26:57;9.32;;;6.03;;
22282;SDS011;11310;51.528;21.204;2022-08-19T00:29:48;10.18;;;6.00;;
22282;SDS011;11310;51.528;21.204;2022-08-19T00:34:49;10.00;;;5.93;;
22282;SDS011;11310;51.528;21.204;2022-08-19T00:37:22;9.43;;;5.77;;
22282;SDS011;11310;51.528;21.204;2022-08-19T00:39:53;12.95;;;6.22;;
22282;SDS011;11310;51.528;21.204;2022-08-19T00:42:22;10.23;;;6.28;;
22282;SDS011;11310;51.528;21.204;2022-08-19T00:44:55;11.10;;;6.45;;
22282;SDS011;11310;51.528;21.204;2022-08-19T00:47:24;9.70;;;6.03;;
22282;SDS011;11310;51.528;21.204;2022-08-19T00:49:54;11.63;;;6.78;;
22282;SDS011;11310;51.528;21.204;2022-08-19T00:52:27;12.43;;;6.60;;
22282;SDS011;11310;51.528;21.204;2022-08-19T00:54:57;10.68;;;6.20;;
22282;SDS011;11310;51.528;21.204;2022-08-19T00:57:28;18.00;;;6.82;;
22282;SDS011;11310;51.528;21.204;2022-08-19T01:00:03;10.75;;;6.13;;
22282;SDS011;11310;51.528;21.204;2022-08-19T01:02:35;11.55;;;5.82;;
22282;SDS011;11310;51.528;21.204;2022-08-19T01:05:05;11.20;;;6.60;;
22282;SDS011;11310;51.528;21.204;2022-08-19T01:07:38;12.52;;;6.55;;
22282;SDS011;11310;51.528;21.204;2022-08-19T01:10:10;10.77;;;6.15;;
22282;SDS011;11310;51.528;21.204;2022-08-19T01:12:42;9.63;;;5.85;;
22282;SDS011;11310;51.528;21.204;2022-08-19T01:15:14;12.05;;;6.07;;
22282;SDS011;11310;51.528;21.204;2022-08-19T01:17:46;10.07;;;6.63;;
22282;SDS011;11310;51.528;21.204;2022-08-19T01:20:17;11.98;;;6.35;;
22282;SDS011;11310;51.528;21.204;2022-08-19T01:22:51;11.85;;;7.13;;
22282;SDS011;11310;51.528;21.204;2022-08-19T01:25:22;12.38;;;6.45;;
22282;SDS011;11310;51.528;21.204;2022-08-19T01:27:54;11.95;;;7.70;;
22282;SDS011;11310;51.528;21.204;2022-08-19T01:30:35;13.87;;;6.60;;
22282;SDS011;11310;51.528;21.204;2022-08-19T01:33:04;11.98;;;6.00;;
22282;SDS011;11310;51.528;21.204;2022-08-19T01:35:35;11.57;;;6.20;;
22282;SDS011;11310;51.528;21.204;2022-08-19T01:38:06;14.73;;;6.55;;
22282;SDS011;11310;51.528;21.204;2022-08-19T01:40:38;10.70;;;6.47;;
22282;SDS011;11310;51.528;21.204;2022-08-19T01:43:09;10.02;;;6.25;;
22282;SDS011;11310;51.528;21.204;2022-08-19T01:45:37;10.10;;;6.28;;
22282;SDS011;11310;51.528;21.204;2022-08-19T01:48:07;11.13;;;6.85;;
22282;SDS011;11310;51.528;21.204;2022-08-19T01:50:36;11.93;;;6.63;;
22282;SDS011;11310;51.528;21.204;2022-08-19T01:53:06;13.20;;;6.88;;
22282;SDS011;11310;51.528;21.204;2022-08-19T01:55:39;11.40;;;6.85;;
22282;SDS011;11310;51.528;21.204;2022-08-19T01:58:11;12.13;;;6.78;;
22282;SDS011;11310;51.528;21.204;2022-08-19T02:00:43;13.60;;;6.32;;
22282;SDS011;11310;51.528;21.204;2022-08-19T02:03:13;16.00;;;7.55;;
22282;SDS011;11310;51.528;21.204;2022-08-19T02:05:43;12.02;;;6.75;;
22282;SDS011;11310;51.528;21.204;2022-08-19T02:08:14;10.70;;;6.43;;
22282;SDS011;11310;51.528;21.204;2022-08-19T02:10:43;11.90;;;6.25;;
22282;SDS011;11310;51.528;21.204;2022-08-19T02:13:12;11.90;;;6.35;;
22282;SDS011;11310;51.528;21.204;2022-08-19T02:15:46;11.20;;;6.65;;
22282;SDS011;11310;51.528;21.204;2022-08-19T02:18:15;12.35;;;7.07;;
22282;SDS011;11310;51.528;21.204;2022-08-19T02:20:44;10.60;;;6.07;;
22282;SDS011;11310;51.528;21.204;2022-08-19T02:23:15;12.75;;;6.55;;
22282;SDS011;11310;51.528;21.204;2022-08-19T02:25:45;12.38;;;6.57;;
22282;SDS011;11310;51.528;21.204;2022-08-19T02:28:15;12.18;;;6.68;;
22282;SDS011;11310;51.528;21.204;2022-08-19T02:30:45;13.40;;;6.65;;
22282;SDS011;11310;51.528;21.204;2022-08-19T02:33:15;15.63;;;7.25;;
22282;SDS011;11310;51.528;21.204;2022-08-19T02:35:45;12.48;;;7.55;;
22282;SDS011;11310;51.528;21.204;2022-08-19T02:38:15;10.35;;;6.60;;
22282;SDS011;11310;51.528;21.204;2022-08-19T02:40:53;13.48;;;6.78;;
22282;SDS011;11310;51.528;21.204;2022-08-19T02:43:25;11.70;;;6.68;;
22282;SDS011;11310;51.528;21.204;2022-08-19T02:46:00;14.23;;;7.20;;
22282;SDS011;11310;51.528;21.204;2022-08-19T02:48:30;12.68;;;6.38;;
22282;SDS011;11310;51.528;21.204;2022-08-19T02:50:59;10.70;;;6.80;;
22282;SDS011;11310;51.528;21.204;2022-08-19T02:53:30;12.00;;;6.70;;
22282;SDS011;11310;51.528;21.204;2022-08-19T02:55:58;12.60;;;7.30;;
22282;SDS011;11310;51.528;21.204;2022-08-19T02:58:27;11.35;;;6.82;;
22282;SDS011;11310;51.528;21.204;2022-08-19T03:00:56;15.45;;;7.47;;
22282;SDS011;11310;51.528;21.204;2022-08-19T03:03:25;12.50;;;6.97;;
22282;SDS011;11310;51.528;21.204;2022-08-19T03:06:04;12.68;;;6.53;;
22282;SDS011;11310;51.528;21.204;2022-08-19T03:08:37;14.48;;;6.93;;
22282;SDS011;11310;51.528;21.204;2022-08-19T03:11:12;10.15;;;6.50;;
22282;SDS011;11310;51.528;21.204;2022-08-19T03:13:42;11.30;;;6.53;;
22282;SDS011;11310;51.528;21.204;2022-08-19T03:16:11;10.52;;;6.35;;
22282;SDS011;11310;51.528;21.204;2022-08-19T03:18:43;15.70;;;6.65;;
22282;SDS011;11310;51.528;21.204;2022-08-19T03:21:15;10.30;;;6.18;;
22282;SDS011;11310;51.528;21.204;2022-08-19T03:23:46;13.68;;;6.47;;
22282;SDS011;11310;51.528;21.204;2022-08-19T03:26:15;11.13;;;6.70;;
22282;SDS011;11310;51.528;21.204;2022-08-19T03:28:46;11.90;;;6.93;;
22282;SDS011;11310;51.528;21.204;2022-08-19T03:31:24;13.25;;;6.30;;
22282;SDS011;11310;51.528;21.204;2022-08-19T03:34:15;13.55;;;7.13;;
22282;SDS011;11310;51.528;21.204;2022-08-19T03:36:46;15.68;;;7.80;;
22282;SDS011;11310;51.528;21.204;2022-08-19T03:39:16;11.02;;;6.38;;
22282;SDS011;11310;51.528;21.204;2022-08-19T03:41:47;10.88;;;7.40;;
22282;SDS011;11310;51.528;21.204;2022-08-19T03:44:38;10.80;;;6.45;;
22282;SDS011;11310;51.528;21.204;2022-08-19T03:47:09;11.35;;;6.97;;
22282;SDS011;11310;51.528;21.204;2022-08-19T03:49:44;10.95;;;6.85;;
22282;SDS011;11310;51.528;21.204;2022-08-19T03:52:14;14.07;;;7.00;;
22282;SDS011;11310;51.528;21.204;2022-08-19T03:54:44;13.27;;;6.97;;
22282;SDS011;11310;51.528;21.204;2022-08-19T03:57:13;10.65;;;6.47;;
22282;SDS011;11310;51.528;21.204;2022-08-19T03:59:42;10.77;;;6.35;;
22282;SDS011;11310;51.528;21.204;2022-08-19T04:02:11;9.05;;;6.10;;
22282;SDS011;11310;51.528;21.204;2022-08-19T04:04:42;12.20;;;7.25;;
22282;SDS011;11310;51.528;21.204;2022-08-19T04:07:11;10.77;;;6.45;;
22282;SDS011;11310;51.528;21.204;2022-08-19T04:09:44;10.75;;;6.05;;
22282;SDS011;11310;51.528;21.204;2022-08-19T04:12:13;13.02;;;6.95;;
22282;SDS011;11310;51.528;21.204;2022-08-19T04:14:42;14.52;;;6.80;;
22282;SDS011;11310;51.528;21.204;2022-08-19T04:17:11;12.65;;;7.07;;
22282;SDS011;11310;51.528;21.204;2022-08-19T04:19:42;11.77;;;6.45;;
22282;SDS011;11310;51.528;21.204;2022-08-19T04:22:11;10.88;;;6.03;;
22282;SDS011;11310;51.528;21.204;2022-08-19T04:24:40;15.13;;;6.97;;
22282;SDS011;11310;51.528;21.204;2022-08-19T04:27:10;12.27;;;6.60;;
22282;SDS011;11310;51.528;21.204;2022-08-19T04:29:38;9.88;;;6.50;;
22282;SDS011;11310;51.528;21.204;2022-08-19T04:34:42;12.48;;;6.15;;
22282;SDS011;11310;51.528;21.204;2022-08-19T04:37:28;10.68;;;6.43;;
22282;SDS011;11310;51.528;21.204;2022-08-19T04:40:02;11.95;;;6.72;;
22282;SDS011;11310;51.528;21.204;2022-08-19T04:42:52;11.60;;;6.80;;
22282;SDS011;11310;51.528;21.204;2022-08-19T04:45:21;12.63;;;7.65;;
22282;SDS011;11310;51.528;21.204;2022-08-19T04:47:54;14.63;;;6.93;;
22282;SDS011;11310;51.528;21.204;2022-08-19T04:50:45;11.10;;;6.00;;
22282;SDS011;11310;51.528;21.204;2022-08-19T04:53:14;11.18;;;6.28;;
22282;SDS011;11310;51.528;21.204;2022-08-19T04:55:42;15.05;;;7.07;;
22282;SDS011;11310;51.528;21.204;2022-08-19T04:58:13;13.10;;;6.72;;
22282;SDS011;11310;51.528;21.204;2022-08-19T05:00:43;14.93;;;7.35;;
22282;SDS011;11310;51.528;21.204;2022-08-19T05:03:12;12.35;;;6.28;;
22282;SDS011;11310;51.528;21.204;2022-08-19T05:05:45;11.68;;;6.60;;
22282;SDS011;11310;51.528;21.204;2022-08-19T05:08:17;12.38;;;6.50;;
22282;SDS011;11310;51.528;21.204;2022-08-19T05:10:58;11.27;;;6.40;;
22282;SDS011;11310;51.528;21.204;2022-08-19T05:13:28;13.68;;;6.45;;
22282;SDS011;11310;51.528;21.204;2022-08-19T05:15:57;12.18;;;6.57;;
22282;SDS011;11310;51.528;21.204;2022-08-19T05:18:27;12.07;;;6.40;;
22282;SDS011;11310;51.528;21.204;2022-08-19T05:21:15;9.30;;;5.90;;
22282;SDS011;11310;51.528;21.204;2022-08-19T05:24:03;11.90;;;6.20;;
22282;SDS011;11310;51.528;21.204;2022-08-19T05:26:35;14.95;;;6.70;;
22282;SDS011;11310;51.528;21.204;2022-08-19T05:29:05;12.65;;;7.00;;
22282;SDS011;11310;51.528;21.204;2022-08-19T05:34:07;13.35;;;5.50;;
22282;SDS011;11310;51.528;21.204;2022-08-19T05:36:46;11.60;;;6.25;;
22282;SDS011;11310;51.528;21.204;2022-08-19T05:41:48;12.02;;;5.50;;
22282;SDS011;11310;51.528;21.204;2022-08-19T05:44:24;11.05;;;6.63;;
22282;SDS011;11310;51.528;21.204;2022-08-19T05:46:53;9.88;;;6.43;;
22282;SDS011;11310;51.528;21.204;2022-08-19T05:49:22;12.40;;;7.55;;
22282;SDS011;11310;51.528;21.204;2022-08-19T05:51:52;15.07;;;9.65;;
22282;SDS011;11310;51.528;21.204;2022-08-19T05:54:21;13.60;;;8.95;;
22282;SDS011;11310;51.528;21.204;2022-08-19T05:56:51;12.60;;;7.03;;
22282;SDS011;11310;51.528;21.204;2022-08-19T05:59:21;11.45;;;6.95;;
22282;SDS011;11310;51.528;21.204;2022-08-19T06:01:52;13.93;;;6.68;;
22282;SDS011;11310;51.528;21.204;2022-08-19T06:04:23;10.60;;;6.35;;
22282;SDS011;11310;51.528;21.204;2022-08-19T06:06:54;11.20;;;6.28;;
22282;SDS011;11310;51.528;21.204;2022-08-19T06:09:23;11.35;;;6.45;;
22282;SDS011;11310;51.528;21.204;2022-08-19T06:11:53;11.50;;;7.15;;
22282;SDS011;11310;51.528;21.204;2022-08-19T06:14:27;10.45;;;6.55;;
22282;SDS011;11310;51.528;21.204;2022-08-19T06:17:00;11.23;;;6.82;;
22282;SDS011;11310;51.528;21.204;2022-08-19T06:19:33;12.00;;;6.45;;
22282;SDS011;11310;51.528;21.204;2022-08-19T06:22:06;11.02;;;6.18;;
22282;SDS011;11310;51.528;21.204;2022-08-19T06:24:38;13.15;;;6.57;;
22282;SDS011;11310;51.528;21.204;2022-08-19T06:27:08;9.10;;;5.97;;
22282;SDS011;11310;51.528;21.204;2022-08-19T06:29:38;11.70;;;5.95;;
22282;SDS011;11310;51.528;21.204;2022-08-19T06:32:09;10.70;;;6.32;;
22282;SDS011;11310;51.528;21.204;2022-08-19T06:34:38;12.32;;;6.10;;
22282;SDS011;11310;51.528;21.204;2022-08-19T06:37:07;13.68;;;6.25;;
22282;SDS011;11310;51.528;21.204;2022-08-19T06:39:37;12.73;;;6.30;;
22282;SDS011;11310;51.528;21.204;2022-08-19T06:42:07;9.32;;;5.32;;
22282;SDS011;11310;51.528;21.204;2022-08-19T06:44:39;10.85;;;5.80;;
22282;SDS011;11310;51.528;21.204;2022-08-19T06:47:16;11.55;;;5.93;;
22282;SDS011;11310;51.528;21.204;2022-08-19T06:49:55;9.32;;;5.53;;
22282;SDS011;11310;51.528;21.204;2022-08-19T06:52:28;10.07;;;5.95;;
22282;SDS011;11310;51.528;21.204;2022-08-19T06:55:00;10.43;;;5.88;;
22282;SDS011;11310;51.528;21.204;2022-08-19T06:57:32;10.98;;;5.90;;
22282;SDS011;11310;51.528;21.204;2022-08-19T07:00:02;10.45;;;6.25;;
22282;SDS011;11310;51.528;21.204;2022-08-19T07:02:39;9.27;;;5.60;;
22282;SDS011;11310;51.528;21.204;2022-08-19T07:05:21;8.40;;;5.18;;
22282;SDS011;11310;51.528;21.204;2022-08-19T07:07:52;9.23;;;5.95;;
22282;SDS011;11310;51.528;21.204;2022-08-19T07:10:27;12.32;;;6.43;;
22282;SDS011;11310;51.528;21.204;2022-08-19T07:12:58;11.55;;;5.72;;
22282;SDS011;11310;51.528;21.204;2022-08-19T07:15:27;10.00;;;5.28;;
22282;SDS011;11310;51.528;21.204;2022-08-19T07:17:57;8.73;;;5.53;;
22282;SDS011;11310;51.528;21.204;2022-08-19T07:20:26;9.18;;;5.30;;
22282;SDS011;11310;51.528;21.204;2022-08-19T07:22:55;10.55;;;5.43;;
22282;SDS011;11310;51.528;21.204;2022-08-19T07:25:25;8.55;;;5.43;;
22282;SDS011;11310;51.528;21.204;2022-08-19T07:27:59;9.00;;;5.10;;
22282;SDS011;11310;51.528;21.204;2022-08-19T07:30:28;9.80;;;5.68;;
22282;SDS011;11310;51.528;21.204;2022-08-19T07:32:58;9.88;;;5.47;;
22282;SDS011;11310;51.528;21.204;2022-08-19T07:35:32;9.38;;;5.05;;
22282;SDS011;11310;51.528;21.204;2022-08-19T07:38:01;11.70;;;5.57;;
22282;SDS011;11310;51.528;21.204;2022-08-19T07:40:31;9.63;;;5.35;;
22282;SDS011;11310;51.528;21.204;2022-08-19T07:43:00;10.45;;;4.97;;
22282;SDS011;11310;51.528;21.204;2022-08-19T07:45:29;12.25;;;5.13;;
22282;SDS011;11310;51.528;21.204;2022-08-19T07:48:02;10.38;;;5.53;;
22282;SDS011;11310;51.528;21.204;2022-08-19T07:50:33;11.02;;;5.28;;
22282;SDS011;11310;51.528;21.204;2022-08-19T07:53:05;8.02;;;5.25;;
22282;SDS011;11310;51.528;21.204;2022-08-19T07:55:35;10.32;;;5.43;;
22282;SDS011;11310;51.528;21.204;2022-08-19T07:58:10;8.93;;;5.00;;
22282;SDS011;11310;51.528;21.204;2022-08-19T08:00:40;9.23;;;5.18;;
22282;SDS011;11310;51.528;21.204;2022-08-19T08:03:10;8.35;;;5.05;;
22282;SDS011;11310;51.528;21.204;2022-08-19T08:05:40;8.82;;;4.93;;
22282;SDS011;11310;51.528;21.204;2022-08-19T08:08:27;11.93;;;4.80;;
22282;SDS011;11310;51.528;21.204;2022-08-19T08:11:15;11.25;;;5.05;;
22282;SDS011;11310;51.528;21.204;2022-08-19T08:13:47;9.13;;;5.50;;
22282;SDS011;11310;51.528;21.204;2022-08-19T08:16:32;8.60;;;5.20;;
22282;SDS011;11310;51.528;21.204;2022-08-19T08:19:14;10.68;;;4.85;;
22282;SDS011;11310;51.528;21.204;2022-08-19T08:21:51;12.32;;;4.10;;
22282;SDS011;11310;51.528;21.204;2022-08-19T08:24:21;8.85;;;4.78;;
22282;SDS011;11310;51.528;21.204;2022-08-19T08:26:54;11.80;;;5.47;;
22282;SDS011;11310;51.528;21.204;2022-08-19T08:29:25;9.82;;;5.30;;
22282;SDS011;11310;51.528;21.204;2022-08-19T08:32:01;9.55;;;4.95;;
22282;SDS011;11310;51.528;21.204;2022-08-19T08:34:41;10.57;;;4.57;;
22282;SDS011;11310;51.528;21.204;2022-08-19T08:37:13;9.10;;;4.50;;
22282;SDS011;11310;51.528;21.204;2022-08-19T08:39:41;10.95;;;5.65;;
22282;SDS011;11310;51.528;21.204;2022-08-19T08:42:12;12.02;;;5.22;;
22282;SDS011;11310;51.528;21.204;2022-08-19T08:44:50;11.07;;;4.55;;
22282;SDS011;11310;51.528;21.204;2022-08-19T08:47:26;8.60;;;4.70;;
22282;SDS011;11310;51.528;21.204;2022-08-19T08:50:03;10.45;;;4.57;;
22282;SDS011;11310;51.528;21.204;2022-08-19T08:52:36;9.48;;;4.65;;
22282;SDS011;11310;51.528;21.204;2022-08-19T08:55:10;8.00;;;5.00;;
22282;SDS011;11310;51.528;21.204;2022-08-19T08:57:43;9.40;;;4.93;;
22282;SDS011;11310;51.528;21.204;2022-08-19T09:00:22;11.65;;;4.72;;
22282;SDS011;11310;51.528;21.204;2022-08-19T09:05:24;8.63;;;4.05;;
22282;SDS011;11310;51.528;21.204;2022-08-19T09:08:08;12.00;;;4.43;;
22282;SDS011;11310;51.528;21.204;2022-08-19T09:10:46;11.20;;;4.90;;
22282;SDS011;11310;51.528;21.204;2022-08-19T09:13:23;7.57;;;4.57;;
22282;SDS011;11310;51.528;21.204;2022-08-19T09:16:05;8.82;;;4.28;;
22282;SDS011;11310;51.528;21.204;2022-08-19T09:18:38;6.63;;;4.03;;
22282;SDS011;11310;51.528;21.204;2022-08-19T09:21:10;7.63;;;4.85;;
22282;SDS011;11310;51.528;21.204;2022-08-19T09:23:39;10.55;;;4.80;;
22282;SDS011;11310;51.528;21.204;2022-08-19T09:26:09;10.88;;;4.90;;
22282;SDS011;11310;51.528;21.204;2022-08-19T09:28:42;12.02;;;4.60;;
22282;SDS011;11310;51.528;21.204;2022-08-19T09:31:15;9.07;;;4.57;;
22282;SDS011;11310;51.528;21.204;2022-08-19T09:33:45;10.18;;;5.88;;
22282;SDS011;11310;51.528;21.204;2022-08-19T09:36:20;8.15;;;4.75;;
22282;SDS011;11310;51.528;21.204;2022-08-19T09:39:00;9.15;;;4.70;;
22282;SDS011;11310;51.528;21.204;2022-08-19T09:41:41;13.07;;;4.93;;
22282;SDS011;11310;51.528;21.204;2022-08-19T09:44:15;9.88;;;4.22;;
22282;SDS011;11310;51.528;21.204;2022-08-19T09:46:45;9.27;;;4.80;;
22282;SDS011;11310;51.528;21.204;2022-08-19T09:49:15;9.80;;;5.38;;
22282;SDS011;11310;51.528;21.204;2022-08-19T09:51:50;13.20;;;4.70;;
22282;SDS011;11310;51.528;21.204;2022-08-19T09:54:21;10.45;;;4.43;;
22282;SDS011;11310;51.528;21.204;2022-08-19T09:56:51;8.02;;;4.82;;
22282;SDS011;11310;51.528;21.204;2022-08-19T09:59:20;9.15;;;4.30;;
22282;SDS011;11310;51.528;21.204;2022-08-19T10:01:49;8.25;;;4.47;;
22282;SDS011;11310;51.528;21.204;2022-08-19T10:04:19;10.27;;;4.63;;
22282;SDS011;11310;51.528;21.204;2022-08-19T10:06:55;9.20;;;4.60;;
22282;SDS011;11310;51.528;21.204;2022-08-19T10:09:25;9.90;;;4.25;;
22282;SDS011;11310;51.528;21.204;2022-08-19T10:12:02;8.88;;;4.70;;
22282;SDS011;11310;51.528;21.204;2022-08-19T10:14:32;9.57;;;5.00;;
22282;SDS011;11310;51.528;21.204;2022-08-19T10:17:01;9.52;;;5.10;;
22282;SDS011;11310;51.528;21.204;2022-08-19T10:19:47;11.50;;;5.28;;
22282;SDS011;11310;51.528;21.204;2022-08-19T10:22:23;8.85;;;5.05;;
22282;SDS011;11310;51.528;21.204;2022-08-19T10:24:52;9.60;;;4.63;;
22282;SDS011;11310;51.528;21.204;2022-08-19T10:27:20;9.70;;;4.88;;
22282;SDS011;11310;51.528;21.204;2022-08-19T10:29:52;11.02;;;4.88;;
22282;SDS011;11310;51.528;21.204;2022-08-19T10:32:20;8.82;;;4.82;;
22282;SDS011;11310;51.528;21.204;2022-08-19T10:35:00;9.50;;;4.50;;
22282;SDS011;11310;51.528;21.204;2022-08-19T10:37:33;8.98;;;4.53;;
22282;SDS011;11310;51.528;21.204;2022-08-19T10:40:22;10.70;;;4.45;;
22282;SDS011;11310;51.528;21.204;2022-08-19T10:42:51;9.02;;;5.10;;
22282;SDS011;11310;51.528;21.204;2022-08-19T10:45:20;14.27;;;6.55;;
22282;SDS011;11310;51.528;21.204;2022-08-19T10:47:54;12.77;;;6.03;;
22282;SDS011;11310;51.528;21.204;2022-08-19T10:50:24;10.85;;;5.18;;
22282;SDS011;11310;51.528;21.204;2022-08-19T10:53:17;10.65;;;5.20;;
22282;SDS011;11310;51.528;21.204;2022-08-19T10:55:51;18.88;;;6.68;;
22282;SDS011;11310;51.528;21.204;2022-08-19T10:58:37;14.65;;;5.50;;
22282;SDS011;11310;51.528;21.204;2022-08-19T11:01:07;11.35;;;4.90;;
22282;SDS011;11310;51.528;21.204;2022-08-19T11:03:36;10.18;;;4.60;;
22282;SDS011;11310;51.528;21.204;2022-08-19T11:06:05;10.90;;;5.05;;
22282;SDS011;11310;51.528;21.204;2022-08-19T11:08:37;11.67;;;4.57;;
22282;SDS011;11310;51.528;21.204;2022-08-19T11:11:08;10.75;;;4.50;;
22282;SDS011;11310;51.528;21.204;2022-08-19T11:13:37;10.00;;;5.28;;
22282;SDS011;11310;51.528;21.204;2022-08-19T11:16:09;9.27;;;4.70;;
22282;SDS011;11310;51.528;21.204;2022-08-19T11:18:41;9.32;;;4.32;;
22282;SDS011;11310;51.528;21.204;2022-08-19T11:21:12;13.30;;;5.80;;
22282;SDS011;11310;51.528;21.204;2022-08-19T11:23:45;9.93;;;5.10;;
22282;SDS011;11310;51.528;21.204;2022-08-19T11:26:16;6.97;;;4.30;;
22282;SDS011;11310;51.528;21.204;2022-08-19T11:28:46;8.63;;;3.90;;
22282;SDS011;11310;51.528;21.204;2022-08-19T11:31:18;8.18;;;3.88;;
22282;SDS011;11310;51.528;21.204;2022-08-19T11:33:55;8.30;;;3.90;;
22282;SDS011;11310;51.528;21.204;2022-08-19T11:36:24;8.15;;;4.05;;
22282;SDS011;11310;51.528;21.204;2022-08-19T11:38:57;7.22;;;3.97;;
22282;SDS011;11310;51.528;21.204;2022-08-19T11:41:26;11.10;;;4.00;;
22282;SDS011;11310;51.528;21.204;2022-08-19T11:43:55;8.60;;;3.88;;
22282;SDS011;11310;51.528;21.204;2022-08-19T11:46:24;8.65;;;3.83;;
22282;SDS011;11310;51.528;21.204;2022-08-19T11:48:56;7.25;;;3.72;;
22282;SDS011;11310;51.528;21.204;2022-08-19T11:51:27;6.95;;;3.97;;
22282;SDS011;11310;51.528;21.204;2022-08-19T11:53:58;7.22;;;4.07;;
22282;SDS011;11310;51.528;21.204;2022-08-19T11:58:56;8.05;;;3.60;;
22282;SDS011;11310;51.528;21.204;2022-08-19T12:01:25;10.07;;;3.80;;
22282;SDS011;11310;51.528;21.204;2022-08-19T12:03:55;7.35;;;3.80;;
22282;SDS011;11310;51.528;21.204;2022-08-19T12:06:28;7.63;;;3.65;;
22282;SDS011;11310;51.528;21.204;2022-08-19T12:09:01;6.93;;;3.83;;
22282;SDS011;11310;51.528;21.204;2022-08-19T12:11:32;6.30;;;3.47;;
22282;SDS011;11310;51.528;21.204;2022-08-19T12:14:01;8.18;;;3.30;;
22282;SDS011;11310;51.528;21.204;2022-08-19T12:16:32;6.97;;;3.30;;
22282;SDS011;11310;51.528;21.204;2022-08-19T12:19:06;5.20;;;3.47;;
22282;SDS011;11310;51.528;21.204;2022-08-19T12:21:35;7.28;;;3.17;;
22282;SDS011;11310;51.528;21.204;2022-08-19T12:24:06;8.73;;;3.60;;
22282;SDS011;11310;51.528;21.204;2022-08-19T12:26:35;7.78;;;3.55;;
22282;SDS011;11310;51.528;21.204;2022-08-19T12:29:19;7.50;;;3.30;;
22282;SDS011;11310;51.528;21.204;2022-08-19T12:31:55;6.60;;;3.38;;
22282;SDS011;11310;51.528;21.204;2022-08-19T12:34:30;6.85;;;2.95;;
22282;SDS011;11310;51.528;21.204;2022-08-19T12:37:01;8.77;;;3.78;;
22282;SDS011;11310;51.528;21.204;2022-08-19T12:39:35;8.88;;;3.45;;
22282;SDS011;11310;51.528;21.204;2022-08-19T12:42:05;5.43;;;3.17;;
22282;SDS011;11310;51.528;21.204;2022-08-19T12:44:35;6.10;;;4.00;;
22282;SDS011;11310;51.528;21.204;2022-08-19T12:47:07;7.15;;;3.40;;
22282;SDS011;11310;51.528;21.204;2022-08-19T12:49:36;5.90;;;3.13;;
22282;SDS011;11310;51.528;21.204;2022-08-19T12:52:21;6.63;;;3.50;;
22282;SDS011;11310;51.528;21.204;2022-08-19T12:54:53;7.22;;;3.60;;
22282;SDS011;11310;51.528;21.204;2022-08-19T12:57:23;7.63;;;3.60;;
22282;SDS011;11310;51.528;21.204;2022-08-19T12:59:59;6.95;;;3.00;;
22282;SDS011;11310;51.528;21.204;2022-08-19T13:02:31;6.45;;;3.28;;
22282;SDS011;11310;51.528;21.204;2022-08-19T13:05:05;7.05;;;3.65;;
22282;SDS011;11310;51.528;21.204;2022-08-19T13:07:37;7.85;;;3.67;;
22282;SDS011;11310;51.528;21.204;2022-08-19T13:10:08;6.97;;;3.67;;
22282;SDS011;11310;51.528;21.204;2022-08-19T13:12:39;7.00;;;3.45;;
22282;SDS011;11310;51.528;21.204;2022-08-19T13:15:10;5.65;;;3.05;;
22282;SDS011;11310;51.528;21.204;2022-08-19T13:17:41;7.55;;;3.70;;
22282;SDS011;11310;51.528;21.204;2022-08-19T13:20:10;5.65;;;3.53;;
22282;SDS011;11310;51.528;21.204;2022-08-19T13:22:39;8.18;;;3.50;;
22282;SDS011;11310;51.528;21.204;2022-08-19T13:25:09;5.82;;;3.00;;
22282;SDS011;11310;51.528;21.204;2022-08-19T13:27:39;8.43;;;3.22;;
22282;SDS011;11310;51.528;21.204;2022-08-19T13:30:09;9.75;;;3.67;;
22282;SDS011;11310;51.528;21.204;2022-08-19T13:32:57;6.75;;;3.47;;
22282;SDS011;11310;51.528;21.204;2022-08-19T13:35:43;6.63;;;3.80;;
22282;SDS011;11310;51.528;21.204;2022-08-19T13:38:15;5.82;;;3.25;;
22282;SDS011;11310;51.528;21.204;2022-08-19T13:40:47;9.35;;;3.20;;
22282;SDS011;11310;51.528;21.204;2022-08-19T13:43:16;8.45;;;3.60;;
22282;SDS011;11310;51.528;21.204;2022-08-19T13:45:49;8.60;;;3.35;;
22282;SDS011;11310;51.528;21.204;2022-08-19T13:48:19;6.17;;;3.43;;
22282;SDS011;11310;51.528;21.204;2022-08-19T13:50:48;7.72;;;3.20;;
22282;SDS011;11310;51.528;21.204;2022-08-19T13:53:18;8.38;;;3.20;;
22282;SDS011;11310;51.528;21.204;2022-08-19T13:55:48;5.30;;;3.20;;
22282;SDS011;11310;51.528;21.204;2022-08-19T13:58:17;5.60;;;3.23;;
22282;SDS011;11310;51.528;21.204;2022-08-19T14:00:46;6.90;;;3.67;;
22282;SDS011;11310;51.528;21.204;2022-08-19T14:03:16;12.13;;;3.60;;
22282;SDS011;11310;51.528;21.204;2022-08-19T14:05:45;7.60;;;3.95;;
22282;SDS011;11310;51.528;21.204;2022-08-19T14:08:14;6.45;;;3.70;;
22282;SDS011;11310;51.528;21.204;2022-08-19T14:10:44;5.60;;;3.35;;
22282;SDS011;11310;51.528;21.204;2022-08-19T14:13:14;8.45;;;3.75;;
22282;SDS011;11310;51.528;21.204;2022-08-19T14:15:49;7.68;;;3.50;;
22282;SDS011;11310;51.528;21.204;2022-08-19T14:18:19;7.20;;;4.25;;
22282;SDS011;11310;51.528;21.204;2022-08-19T14:20:51;6.43;;;3.65;;
22282;SDS011;11310;51.528;21.204;2022-08-19T14:23:21;7.30;;;3.85;;
22282;SDS011;11310;51.528;21.204;2022-08-19T14:25:51;7.47;;;3.92;;
22282;SDS011;11310;51.528;21.204;2022-08-19T14:28:30;8.35;;;3.55;;
22282;SDS011;11310;51.528;21.204;2022-08-19T14:30:59;8.33;;;3.87;;
22282;SDS011;11310;51.528;21.204;2022-08-19T14:33:28;6.20;;;3.78;;
22282;SDS011;11310;51.528;21.204;2022-08-19T14:35:57;8.63;;;4.25;;
22282;SDS011;11310;51.528;21.204;2022-08-19T14:38:27;7.45;;;4.05;;
22282;SDS011;11310;51.528;21.204;2022-08-19T14:41:12;8.75;;;3.70;;
22282;SDS011;11310;51.528;21.204;2022-08-19T14:43:45;9.77;;;4.13;;
22282;SDS011;11310;51.528;21.204;2022-08-19T14:48:46;8.27;;;3.10;;
22282;SDS011;11310;51.528;21.204;2022-08-19T14:51:19;8.07;;;3.92;;
22282;SDS011;11310;51.528;21.204;2022-08-19T14:53:53;6.50;;;3.85;;
22282;SDS011;11310;51.528;21.204;2022-08-19T14:56:24;7.85;;;4.07;;
22282;SDS011;11310;51.528;21.204;2022-08-19T14:58:55;7.97;;;4.03;;
22282;SDS011;11310;51.528;21.204;2022-08-19T15:01:28;15.25;;;4.43;;
22282;SDS011;11310;51.528;21.204;2022-08-19T15:04:00;9.02;;;3.72;;
22282;SDS011;11310;51.528;21.204;2022-08-19T15:06:31;7.47;;;4.30;;
22282;SDS011;11310;51.528;21.204;2022-08-19T15:11:34;5.68;;;3.22;;
22282;SDS011;11310;51.528;21.204;2022-08-19T15:14:08;8.85;;;4.15;;
22282;SDS011;11310;51.528;21.204;2022-08-19T15:16:37;9.60;;;4.47;;